CheckWX is a tool to help pilots better visualize weather data.  It is not intended as a substitute for an official pre-flight weather briefing.

06:25:29 UTC

KDTL METAR
Detroit Lakes-Wething Field Airport
Detroit Lakes, Minnesota, USA
Current

10 mins ago

KDTL 230615Z AUTO 00000KT 10SM CLR 07/02 A3013 RMK AO2
Observed
Apr-23 @ 06:15 UTC
Visibility
10 SM
Flight Rules
VFR
Cloud Levels
  • Clear skies
Temperature
C / 45°F
Dewpoint
C / 36°F
Humidity
71%
Altimeter
30.13" Hg
Pressure
1020.32 hPa
Previous

30 mins ago

KDTL 230555Z AUTO 33003KT 10SM CLR 07/02 A3013 RMK AO2
Observed
Apr-23 @ 05:55 UTC
Wind
  • 330° at 3 KTS
Visibility
10 SM
Flight Rules
VFR
Cloud Levels
  • Clear skies
Temperature
C / 45°F
Dewpoint
C / 36°F
Humidity
71%
Altimeter
30.13" Hg
Pressure
1020.32 hPa
Previous

50 mins ago

KDTL 230535Z AUTO 31004KT 10SM CLR 07/02 A3013 RMK AO2
Observed
Apr-23 @ 05:35 UTC
Wind
  • 310° at 4 KTS
Visibility
10 SM
Flight Rules
VFR
Cloud Levels
  • Clear skies
Temperature
C / 45°F
Dewpoint
C / 36°F
Humidity
71%
Altimeter
30.13" Hg
Pressure
1020.32 hPa